Terminal Aerodrome Forecast
Issued by NWS Cleveland, OH

Home | Current Version | Previous Version | Text Only | Print | Product List | Glossary Off
Versions: 1 2 3 4 5 6 7 8 9 10 11 12 13 14 15 16 17 18 19 20 21 22 23 24 25

000
FTUS41 KCLE 150500
TAFCLE
TAF
KCLE 150520Z 1506/1612 01012G18KT P6SM -RA OVC006
      TEMPO 1506/1508 4SM RA BR OVC003
     FM150800 34014G20KT 3SM -RASNPL BR OVC006
      TEMPO 1508/1510 1SM -SN BR OVC004
     FM151000 32014G20KT 3SM -SN BR OVC008
      TEMPO 1510/1512 1SM -SN BR OVC004
     FM151200 32014G20KT 6SM -SN BR OVC015
      TEMPO 1512/1515 4SM -SHSN OVC008
     FM151500 31015G25KT P6SM OVC015
      TEMPO 1515/1518 6SM -SHSN
     FM151800 32018G28KT P6SM OVC025
     FM152200 34014G20KT P6SM BKN045
     FM160200 34011KT P6SM SCT250=

USA.gov is the U.S. government's official web portal to all federal, state and local government web resources and services.